createdAt,value
2022-12-28T18:05:34.581Z,100232.31
2022-12-28T18:08:01.649Z,100235.31
2022-12-28T18:10:28.630Z,100225.03
2022-12-28T18:12:55.538Z,100225.56
2022-12-28T18:15:22.476Z,100217.53
2022-12-28T18:17:49.448Z,100208.75
2022-12-28T18:20:16.481Z,100215.34
2022-12-28T18:22:43.423Z,100197.44
2022-12-28T18:25:10.440Z,100190.72
2022-12-28T18:27:40.366Z,100192.41
2022-12-28T18:30:09.089Z,100188.66
2022-12-28T18:32:36.381Z,100176.97
2022-12-28T18:35:03.764Z,100172.31
2022-12-28T18:37:30.798Z,100162.19
2022-12-28T18:39:57.828Z,100151.09
2022-12-28T18:42:25.577Z,100149.97
2022-12-28T18:44:52.600Z,100154.22
2022-12-28T18:47:19.728Z,100156.44
2022-12-28T18:49:48.207Z,100156.16
2022-12-28T18:52:16.809Z,100136.13
2022-12-28T18:54:43.991Z,100146.00
2022-12-28T18:57:11.168Z,100146.63
2022-12-28T18:59:38.192Z,100149.22
2022-12-28T19:02:07.688Z,100155.19
2022-12-28T19:04:35.463Z,100152.97
2022-12-28T19:09:06.211Z,100162.13
2022-12-28T19:11:33.826Z,100156.13
2022-12-28T19:14:03.484Z,100151.41
2022-12-28T19:19:33.170Z,100173.22
2022-12-28T19:22:00.311Z,100175.38
2022-12-28T19:24:27.698Z,100169.13
2022-12-28T19:26:56.428Z,100161.88
2022-12-28T19:29:24.887Z,100170.97
2022-12-28T19:31:52.256Z,100167.16
2022-12-28T19:34:19.386Z,100167.50
2022-12-28T19:36:46.546Z,100161.69
2022-12-28T19:39:13.943Z,100156.63
2022-12-28T19:41:41.104Z,100149.03
2022-12-28T19:44:08.212Z,100143.88
2022-12-28T19:46:35.485Z,100147.47
2022-12-28T19:49:04.649Z,100145.00
2022-12-28T19:51:33.471Z,100144.16
2022-12-28T19:54:01.561Z,100145.09
2022-12-28T19:56:30.752Z,100133.88
2022-12-28T19:59:05.515Z,100134.75
2022-12-28T20:01:37.087Z,100136.38
2022-12-28T20:04:12.510Z,100121.63
2022-12-28T20:06:45.111Z,100123.44
2022-12-28T20:09:14.146Z,100119.97
2022-12-28T20:11:42.422Z,100114.75
2022-12-28T20:14:14.622Z,100118.25
2022-12-28T20:16:49.316Z,100117.41
2022-12-28T20:19:16.836Z,100111.34
2022-12-28T20:21:49.665Z,100112.28
2022-12-28T20:24:22.025Z,100112.38
2022-12-28T20:26:49.245Z,100098.47
2022-12-28T20:29:18.511Z,100095.84
2022-12-28T20:31:49.707Z,100102.94
2022-12-28T20:34:22.161Z,100086.63
2022-12-28T20:36:58.412Z,100088.34
2022-12-28T20:39:26.975Z,100089.25
2022-12-28T20:42:12.942Z,100095.88
2022-12-28T20:44:40.377Z,100087.50
2022-12-28T20:47:15.596Z,100082.00
2022-12-28T20:49:45.759Z,100079.81
2022-12-28T20:52:13.572Z,100081.19
2022-12-28T20:54:41.038Z,100077.16
2022-12-28T20:57:13.328Z,100077.78
2022-12-28T20:59:53.004Z,100072.25
2022-12-28T21:02:27.570Z,100063.38
2022-12-28T21:05:00.267Z,100054.44
2022-12-28T21:07:36.839Z,100058.16
2022-12-28T21:10:18.283Z,100037.31
2022-12-28T21:12:56.720Z,100050.00
2022-12-28T21:15:39.794Z,100036.72
2022-12-28T21:18:13.220Z,100042.72
2022-12-28T21:20:51.485Z,100044.88
2022-12-28T21:23:19.041Z,100045.59
2022-12-28T21:25:46.241Z,100044.75
2022-12-28T21:28:13.494Z,100036.16
2022-12-28T21:30:40.788Z,100031.66
2022-12-28T21:33:08.050Z,100036.13
2022-12-28T21:35:35.367Z,100035.34
2022-12-28T21:38:04.409Z,100035.47
2022-12-28T21:40:31.785Z,100027.72
2022-12-28T21:43:01.861Z,100022.53
2022-12-28T21:45:29.367Z,100028.56
2022-12-28T21:47:56.526Z,100030.34
2022-12-28T21:50:23.697Z,100027.78
2022-12-28T21:52:50.801Z,100025.38
2022-12-28T21:55:36.833Z,100024.59
2022-12-28T21:58:03.947Z,100039.41
2022-12-28T22:00:49.725Z,100038.72
2022-12-28T22:03:35.795Z,100028.47
2022-12-28T22:06:03.997Z,100041.16
2022-12-28T22:08:50.674Z,100034.72
2022-12-28T22:11:37.271Z,100025.66
2022-12-28T22:14:07.715Z,100034.50
2022-12-28T22:16:35.961Z,100031.19
2022-12-28T22:19:04.919Z,100022.78
2022-12-28T22:21:32.203Z,100027.06
2022-12-28T22:23:59.248Z,100028.00
2022-12-28T22:26:26.403Z,100021.88
2022-12-28T22:28:53.366Z,100026.19
2022-12-28T22:31:20.798Z,100032.34
2022-12-28T22:33:47.876Z,100029.81
2022-12-28T22:36:18.531Z,100040.28
2022-12-28T22:38:46.262Z,100040.34
2022-12-28T22:46:12.072Z,100033.06
2022-12-28T22:48:39.442Z,100038.34
2022-12-28T22:51:12.673Z,100029.69
2022-12-28T22:53:41.176Z,100038.22
2022-12-28T22:56:19.942Z,100039.44
2022-12-28T22:58:48.267Z,100040.22
2022-12-28T23:01:19.327Z,100032.31
2022-12-28T23:03:47.844Z,100032.34
2022-12-28T23:06:20.480Z,100040.34
2022-12-28T23:08:48.322Z,100034.19
2022-12-28T23:11:36.719Z,100030.63
2022-12-28T23:14:28.935Z,100031.44
2022-12-28T23:16:56.439Z,100033.94
2022-12-28T23:19:42.527Z,100027.94
2022-12-28T23:22:33.186Z,100022.91
2022-12-28T23:25:19.102Z,100016.81
2022-12-28T23:27:47.657Z,100014.78
2022-12-28T23:30:19.570Z,100013.00
2022-12-28T23:32:53.350Z,100011.31
2022-12-28T23:35:22.579Z,100012.97
2022-12-28T23:37:50.210Z,100007.63
2022-12-28T23:40:19.583Z,100012.16
2022-12-28T23:42:48.446Z,100000.03
2022-12-28T23:45:18.095Z,99989.63
2022-12-28T23:47:45.684Z,99996.50
2022-12-28T23:50:15.392Z,99993.81
2022-12-28T23:52:42.987Z,99996.44
2022-12-28T23:55:10.942Z,99988.66
2022-12-28T23:57:38.725Z,99982.59
